sensor_id;sensor_type;location;lat;lon;timestamp;temperature;humidity
38131;DHT22;23947;51.894;4.622;2023-02-01T00:01:10;6.80;1.40
38131;DHT22;23947;51.894;4.622;2023-02-01T00:03:35;6.80;1.40
38131;DHT22;23947;51.894;4.622;2023-02-01T00:06:01;6.90;1.40
38131;DHT22;23947;51.894;4.622;2023-02-01T00:08:27;7.00;1.40
38131;DHT22;23947;51.894;4.622;2023-02-01T00:11:02;6.90;1.40
38131;DHT22;23947;51.894;4.622;2023-02-01T00:13:29;7.00;1.40
38131;DHT22;23947;51.894;4.622;2023-02-01T00:15:55;7.00;1.40
38131;DHT22;23947;51.894;4.622;2023-02-01T00:18:20;7.10;1.40
38131;DHT22;23947;51.894;4.622;2023-02-01T00:20:46;7.10;1.40
38131;DHT22;23947;51.894;4.622;2023-02-01T00:23:12;7.00;1.40
38131;DHT22;23947;51.894;4.622;2023-02-01T00:25:37;7.00;1.40
38131;DHT22;23947;51.894;4.622;2023-02-01T00:28:03;7.00;1.40
38131;DHT22;23947;51.894;4.622;2023-02-01T00:30:28;7.00;1.40
38131;DHT22;23947;51.894;4.622;2023-02-01T00:32:54;7.00;1.40
38131;DHT22;23947;51.894;4.622;2023-02-01T00:35:19;7.00;1.40
38131;DHT22;23947;51.894;4.622;2023-02-01T00:37:45;7.00;1.40
38131;DHT22;23947;51.894;4.622;2023-02-01T00:40:10;7.00;1.40
38131;DHT22;23947;51.894;4.622;2023-02-01T00:42:36;7.00;1.40
38131;DHT22;23947;51.894;4.622;2023-02-01T00:45:01;7.00;1.40
38131;DHT22;23947;51.894;4.622;2023-02-01T00:47:27;7.00;1.40
38131;DHT22;23947;51.894;4.622;2023-02-01T00:49:52;7.00;1.40
38131;DHT22;23947;51.894;4.622;2023-02-01T00:52:18;7.10;1.40
38131;DHT22;23947;51.894;4.622;2023-02-01T00:54:43;7.10;1.40
38131;DHT22;23947;51.894;4.622;2023-02-01T00:57:09;7.00;1.40
38131;DHT22;23947;51.894;4.622;2023-02-01T00:59:34;7.10;1.40
38131;DHT22;23947;51.894;4.622;2023-02-01T01:02:00;7.10;1.40
38131;DHT22;23947;51.894;4.622;2023-02-01T01:04:25;7.10;1.40
38131;DHT22;23947;51.894;4.622;2023-02-01T01:06:51;7.00;1.40
38131;DHT22;23947;51.894;4.622;2023-02-01T01:09:16;7.10;1.40
38131;DHT22;23947;51.894;4.622;2023-02-01T01:11:42;7.10;1.40
38131;DHT22;23947;51.894;4.622;2023-02-01T01:14:07;7.10;1.40
38131;DHT22;23947;51.894;4.622;2023-02-01T01:16:33;7.20;1.40
38131;DHT22;23947;51.894;4.622;2023-02-01T01:18:59;7.10;1.40
38131;DHT22;23947;51.894;4.622;2023-02-01T01:21:25;7.00;1.40
38131;DHT22;23947;51.894;4.622;2023-02-01T01:23:51;7.00;1.40
38131;DHT22;23947;51.894;4.622;2023-02-01T01:26:20;7.10;1.40
38131;DHT22;23947;51.894;4.622;2023-02-01T01:28:46;7.10;1.40
38131;DHT22;23947;51.894;4.622;2023-02-01T01:31:12;7.10;1.40
38131;DHT22;23947;51.894;4.622;2023-02-01T01:33:38;7.20;1.40
38131;DHT22;23947;51.894;4.622;2023-02-01T01:36:04;7.20;1.40
38131;DHT22;23947;51.894;4.622;2023-02-01T01:38:30;7.20;1.40
38131;DHT22;23947;51.894;4.622;2023-02-01T01:40:55;7.30;1.40
38131;DHT22;23947;51.894;4.622;2023-02-01T01:43:21;7.20;1.40
38131;DHT22;23947;51.894;4.622;2023-02-01T01:45:48;7.20;1.40
38131;DHT22;23947;51.894;4.622;2023-02-01T01:50:55;7.20;1.40
38131;DHT22;23947;51.894;4.622;2023-02-01T01:53:27;7.20;1.40
38131;DHT22;23947;51.894;4.622;2023-02-01T01:55:53;7.10;1.40
38131;DHT22;23947;51.894;4.622;2023-02-01T01:58:21;7.10;1.40
38131;DHT22;23947;51.894;4.622;2023-02-01T02:00:48;7.10;1.40
38131;DHT22;23947;51.894;4.622;2023-02-01T02:05:38;7.00;1.40
38131;DHT22;23947;51.894;4.622;2023-02-01T02:08:04;7.10;1.40
38131;DHT22;23947;51.894;4.622;2023-02-01T02:10:30;7.00;1.40
38131;DHT22;23947;51.894;4.622;2023-02-01T02:13:14;7.00;1.40
38131;DHT22;23947;51.894;4.622;2023-02-01T02:15:43;7.00;1.40
38131;DHT22;23947;51.894;4.622;2023-02-01T02:18:22;6.90;1.40
38131;DHT22;23947;51.894;4.622;2023-02-01T02:20:57;6.90;1.40
38131;DHT22;23947;51.894;4.622;2023-02-01T02:26:00;7.00;1.40
38131;DHT22;23947;51.894;4.622;2023-02-01T02:33:58;7.00;1.40
38131;DHT22;23947;51.894;4.622;2023-02-01T02:38:58;7.00;1.40
38131;DHT22;23947;51.894;4.622;2023-02-01T02:41:43;6.90;1.40
38131;DHT22;23947;51.894;4.622;2023-02-01T02:47:26;7.00;1.40
38131;DHT22;23947;51.894;4.622;2023-02-01T02:52:39;6.90;1.40
38131;DHT22;23947;51.894;4.622;2023-02-01T02:55:27;7.00;1.40
38131;DHT22;23947;51.894;4.622;2023-02-01T02:57:53;7.00;1.40
38131;DHT22;23947;51.894;4.622;2023-02-01T03:00:39;7.00;1.40
38131;DHT22;23947;51.894;4.622;2023-02-01T03:03:24;7.00;1.40
38131;DHT22;23947;51.894;4.622;2023-02-01T03:06:11;7.10;1.40
38131;DHT22;23947;51.894;4.622;2023-02-01T03:08:37;7.00;1.40
38131;DHT22;23947;51.894;4.622;2023-02-01T03:11:04;7.00;1.40
38131;DHT22;23947;51.894;4.622;2023-02-01T03:18:46;7.10;1.40
38131;DHT22;23947;51.894;4.622;2023-02-01T03:21:13;7.00;1.40
38131;DHT22;23947;51.894;4.622;2023-02-01T03:23:41;7.00;1.40
38131;DHT22;23947;51.894;4.622;2023-02-01T03:26:09;7.00;1.40
38131;DHT22;23947;51.894;4.622;2023-02-01T03:28:36;7.00;1.40
38131;DHT22;23947;51.894;4.622;2023-02-01T03:31:02;6.90;1.40
38131;DHT22;23947;51.894;4.622;2023-02-01T03:33:28;6.90;1.40
38131;DHT22;23947;51.894;4.622;2023-02-01T03:36:06;6.90;1.40
38131;DHT22;23947;51.894;4.622;2023-02-01T03:38:43;6.90;1.40
38131;DHT22;23947;51.894;4.622;2023-02-01T03:43:42;6.90;1.40
38131;DHT22;23947;51.894;4.622;2023-02-01T03:46:09;6.80;1.40
38131;DHT22;23947;51.894;4.622;2023-02-01T03:48:36;6.80;1.40
38131;DHT22;23947;51.894;4.622;2023-02-01T03:51:03;6.80;1.40
38131;DHT22;23947;51.894;4.622;2023-02-01T03:53:29;6.80;1.40
38131;DHT22;23947;51.894;4.622;2023-02-01T03:55:56;6.80;1.40
38131;DHT22;23947;51.894;4.622;2023-02-01T03:58:22;6.80;1.40
38131;DHT22;23947;51.894;4.622;2023-02-01T04:00:55;6.80;1.40
38131;DHT22;23947;51.894;4.622;2023-02-01T04:03:21;6.80;1.40
38131;DHT22;23947;51.894;4.622;2023-02-01T04:05:48;6.80;1.40
38131;DHT22;23947;51.894;4.622;2023-02-01T04:08:13;6.80;1.40
38131;DHT22;23947;51.894;4.622;2023-02-01T04:10:39;6.80;1.40
38131;DHT22;23947;51.894;4.622;2023-02-01T04:13:05;6.80;1.40
38131;DHT22;23947;51.894;4.622;2023-02-01T04:15:30;6.80;1.40
38131;DHT22;23947;51.894;4.622;2023-02-01T04:17:56;6.80;1.40
38131;DHT22;23947;51.894;4.622;2023-02-01T04:20:21;6.70;1.40
38131;DHT22;23947;51.894;4.622;2023-02-01T04:22:47;6.70;1.40
38131;DHT22;23947;51.894;4.622;2023-02-01T04:25:12;6.70;1.40
38131;DHT22;23947;51.894;4.622;2023-02-01T04:27:38;6.70;1.40
38131;DHT22;23947;51.894;4.622;2023-02-01T04:30:04;6.70;1.40
38131;DHT22;23947;51.894;4.622;2023-02-01T04:32:29;6.80;1.40
38131;DHT22;23947;51.894;4.622;2023-02-01T04:34:55;6.80;1.40
38131;DHT22;23947;51.894;4.622;2023-02-01T04:37:20;6.80;1.40
38131;DHT22;23947;51.894;4.622;2023-02-01T04:39:46;6.80;1.40
38131;DHT22;23947;51.894;4.622;2023-02-01T04:42:11;6.80;1.40
38131;DHT22;23947;51.894;4.622;2023-02-01T04:44:37;6.80;1.40
38131;DHT22;23947;51.894;4.622;2023-02-01T04:47:04;6.80;1.40
38131;DHT22;23947;51.894;4.622;2023-02-01T04:49:30;6.90;1.40
38131;DHT22;23947;51.894;4.622;2023-02-01T04:51:56;6.90;1.40
38131;DHT22;23947;51.894;4.622;2023-02-01T04:54:21;6.90;1.40
38131;DHT22;23947;51.894;4.622;2023-02-01T04:56:47;6.90;1.40
38131;DHT22;23947;51.894;4.622;2023-02-01T04:59:12;6.90;1.40
38131;DHT22;23947;51.894;4.622;2023-02-01T05:01:38;6.90;1.40
38131;DHT22;23947;51.894;4.622;2023-02-01T05:04:03;7.00;1.40
38131;DHT22;23947;51.894;4.622;2023-02-01T05:06:29;7.00;1.40
38131;DHT22;23947;51.894;4.622;2023-02-01T05:08:55;7.00;1.40
38131;DHT22;23947;51.894;4.622;2023-02-01T05:11:20;7.00;1.40
38131;DHT22;23947;51.894;4.622;2023-02-01T05:14:04;7.00;1.40
38131;DHT22;23947;51.894;4.622;2023-02-01T05:16:30;7.00;1.40
38131;DHT22;23947;51.894;4.622;2023-02-01T05:18:55;7.00;1.40
38131;DHT22;23947;51.894;4.622;2023-02-01T05:21:21;7.00;1.40
38131;DHT22;23947;51.894;4.622;2023-02-01T05:23:46;6.90;1.40
38131;DHT22;23947;51.894;4.622;2023-02-01T05:26:31;6.90;1.40
38131;DHT22;23947;51.894;4.622;2023-02-01T05:28:56;6.90;1.40
38131;DHT22;23947;51.894;4.622;2023-02-01T05:31:23;6.80;1.40
38131;DHT22;23947;51.894;4.622;2023-02-01T05:33:48;6.80;1.40
38131;DHT22;23947;51.894;4.622;2023-02-01T05:36:14;6.80;1.40
38131;DHT22;23947;51.894;4.622;2023-02-01T05:38:40;6.80;1.40
38131;DHT22;23947;51.894;4.622;2023-02-01T05:41:05;6.70;1.40
38131;DHT22;23947;51.894;4.622;2023-02-01T05:43:31;6.70;1.40
38131;DHT22;23947;51.894;4.622;2023-02-01T05:45:56;6.70;1.40
38131;DHT22;23947;51.894;4.622;2023-02-01T05:48:22;6.70;1.40
38131;DHT22;23947;51.894;4.622;2023-02-01T05:50:47;6.70;1.40
38131;DHT22;23947;51.894;4.622;2023-02-01T05:53:13;6.70;1.40
38131;DHT22;23947;51.894;4.622;2023-02-01T05:55:38;6.70;1.40
38131;DHT22;23947;51.894;4.622;2023-02-01T05:58:04;6.60;1.40
38131;DHT22;23947;51.894;4.622;2023-02-01T06:00:30;6.60;1.40
38131;DHT22;23947;51.894;4.622;2023-02-01T06:02:56;6.60;1.40
38131;DHT22;23947;51.894;4.622;2023-02-01T06:05:21;6.60;1.40
38131;DHT22;23947;51.894;4.622;2023-02-01T06:07:47;6.60;1.40
38131;DHT22;23947;51.894;4.622;2023-02-01T06:10:13;6.60;1.40
38131;DHT22;23947;51.894;4.622;2023-02-01T06:12:38;6.60;1.40
38131;DHT22;23947;51.894;4.622;2023-02-01T06:15:04;6.60;1.40
38131;DHT22;23947;51.894;4.622;2023-02-01T06:17:30;6.60;1.40
38131;DHT22;23947;51.894;4.622;2023-02-01T06:19:55;6.60;1.40
38131;DHT22;23947;51.894;4.622;2023-02-01T06:22:21;6.60;1.40
38131;DHT22;23947;51.894;4.622;2023-02-01T06:24:47;6.60;1.40
38131;DHT22;23947;51.894;4.622;2023-02-01T06:27:14;6.60;1.40
38131;DHT22;23947;51.894;4.622;2023-02-01T06:29:39;6.60;1.40
38131;DHT22;23947;51.894;4.622;2023-02-01T06:32:05;6.60;1.40
38131;DHT22;23947;51.894;4.622;2023-02-01T06:34:30;6.60;1.40
38131;DHT22;23947;51.894;4.622;2023-02-01T06:36:56;6.60;1.40
38131;DHT22;23947;51.894;4.622;2023-02-01T06:39:21;6.70;1.40
38131;DHT22;23947;51.894;4.622;2023-02-01T06:41:47;6.70;1.40
38131;DHT22;23947;51.894;4.622;2023-02-01T06:44:13;6.70;1.40
38131;DHT22;23947;51.894;4.622;2023-02-01T06:46:39;6.60;1.40
38131;DHT22;23947;51.894;4.622;2023-02-01T06:49:04;6.70;1.40
38131;DHT22;23947;51.894;4.622;2023-02-01T06:51:30;6.60;1.40
38131;DHT22;23947;51.894;4.622;2023-02-01T06:53:55;6.60;1.40
38131;DHT22;23947;51.894;4.622;2023-02-01T06:56:21;6.70;1.40
38131;DHT22;23947;51.894;4.622;2023-02-01T06:58:47;6.60;1.40
38131;DHT22;23947;51.894;4.622;2023-02-01T07:01:13;6.70;1.40
38131;DHT22;23947;51.894;4.622;2023-02-01T07:03:39;6.70;1.40
38131;DHT22;23947;51.894;4.622;2023-02-01T07:06:04;6.70;1.40
38131;DHT22;23947;51.894;4.622;2023-02-01T07:08:30;6.70;1.40
38131;DHT22;23947;51.894;4.622;2023-02-01T07:10:56;6.70;1.40
38131;DHT22;23947;51.894;4.622;2023-02-01T07:13:22;6.70;1.40
38131;DHT22;23947;51.894;4.622;2023-02-01T07:15:47;6.70;1.40
38131;DHT22;23947;51.894;4.622;2023-02-01T07:18:13;6.70;1.40
38131;DHT22;23947;51.894;4.622;2023-02-01T07:20:39;6.70;1.40
38131;DHT22;23947;51.894;4.622;2023-02-01T07:23:05;6.70;1.40
38131;DHT22;23947;51.894;4.622;2023-02-01T07:25:31;6.70;1.40
38131;DHT22;23947;51.894;4.622;2023-02-01T07:27:57;6.70;1.40
38131;DHT22;23947;51.894;4.622;2023-02-01T07:30:22;6.70;1.40
38131;DHT22;23947;51.894;4.622;2023-02-01T07:32:48;6.70;1.40
38131;DHT22;23947;51.894;4.622;2023-02-01T07:35:13;6.70;1.40
38131;DHT22;23947;51.894;4.622;2023-02-01T07:37:39;6.70;1.40
38131;DHT22;23947;51.894;4.622;2023-02-01T07:40:05;6.70;1.40
38131;DHT22;23947;51.894;4.622;2023-02-01T07:42:31;6.70;1.40
38131;DHT22;23947;51.894;4.622;2023-02-01T07:44:56;6.70;1.40
38131;DHT22;23947;51.894;4.622;2023-02-01T07:47:22;6.70;1.40
38131;DHT22;23947;51.894;4.622;2023-02-01T07:49:48;6.70;1.40
38131;DHT22;23947;51.894;4.622;2023-02-01T07:52:13;6.70;1.40
38131;DHT22;23947;51.894;4.622;2023-02-01T07:54:41;6.70;1.40
38131;DHT22;23947;51.894;4.622;2023-02-01T07:57:06;6.60;1.40
38131;DHT22;23947;51.894;4.622;2023-02-01T07:59:34;6.70;1.40
38131;DHT22;23947;51.894;4.622;2023-02-01T08:01:59;6.70;1.40
38131;DHT22;23947;51.894;4.622;2023-02-01T08:04:25;6.70;1.40
38131;DHT22;23947;51.894;4.622;2023-02-01T08:06:50;6.70;1.40
38131;DHT22;23947;51.894;4.622;2023-02-01T08:09:15;6.70;1.40
38131;DHT22;23947;51.894;4.622;2023-02-01T08:11:41;6.70;1.40
38131;DHT22;23947;51.894;4.622;2023-02-01T08:14:07;6.70;1.40
38131;DHT22;23947;51.894;4.622;2023-02-01T08:16:32;6.70;1.40
38131;DHT22;23947;51.894;4.622;2023-02-01T08:19:00;6.80;1.40
38131;DHT22;23947;51.894;4.622;2023-02-01T08:21:26;6.80;1.40
38131;DHT22;23947;51.894;4.622;2023-02-01T08:24:01;6.70;1.40
38131;DHT22;23947;51.894;4.622;2023-02-01T08:26:27;6.80;1.40
38131;DHT22;23947;51.894;4.622;2023-02-01T08:28:54;6.70;1.40
38131;DHT22;23947;51.894;4.622;2023-02-01T08:31:21;6.80;1.40
38131;DHT22;23947;51.894;4.622;2023-02-01T08:33:49;6.80;1.40
38131;DHT22;23947;51.894;4.622;2023-02-01T08:36:15;6.90;1.40
38131;DHT22;23947;51.894;4.622;2023-02-01T08:38:40;6.90;1.40
38131;DHT22;23947;51.894;4.622;2023-02-01T08:41:07;6.80;1.40
38131;DHT22;23947;51.894;4.622;2023-02-01T08:43:33;6.90;1.40
38131;DHT22;23947;51.894;4.622;2023-02-01T08:45:59;6.90;1.40
38131;DHT22;23947;51.894;4.622;2023-02-01T08:48:24;7.00;1.40
38131;DHT22;23947;51.894;4.622;2023-02-01T08:50:50;7.00;1.40
38131;DHT22;23947;51.894;4.622;2023-02-01T08:53:15;7.00;1.40
38131;DHT22;23947;51.894;4.622;2023-02-01T08:55:41;7.00;1.40
38131;DHT22;23947;51.894;4.622;2023-02-01T08:58:06;7.10;1.40
38131;DHT22;23947;51.894;4.622;2023-02-01T09:00:32;7.10;1.40
38131;DHT22;23947;51.894;4.622;2023-02-01T09:02:57;7.10;1.40
38131;DHT22;23947;51.894;4.622;2023-02-01T09:05:24;7.10;1.40
38131;DHT22;23947;51.894;4.622;2023-02-01T09:07:52;7.10;1.40
38131;DHT22;23947;51.894;4.622;2023-02-01T09:10:17;7.10;1.40
38131;DHT22;23947;51.894;4.622;2023-02-01T09:12:43;7.10;1.40
38131;DHT22;23947;51.894;4.622;2023-02-01T09:15:08;7.20;1.40
38131;DHT22;23947;51.894;4.622;2023-02-01T09:17:34;7.20;1.40
38131;DHT22;23947;51.894;4.622;2023-02-01T09:20:00;7.20;1.40
38131;DHT22;23947;51.894;4.622;2023-02-01T09:22:25;7.20;1.40
38131;DHT22;23947;51.894;4.622;2023-02-01T09:24:52;7.30;1.40
38131;DHT22;23947;51.894;4.622;2023-02-01T09:27:17;7.30;1.40
38131;DHT22;23947;51.894;4.622;2023-02-01T09:29:43;7.30;1.40
38131;DHT22;23947;51.894;4.622;2023-02-01T09:32:08;7.30;1.40
38131;DHT22;23947;51.894;4.622;2023-02-01T09:34:34;7.40;1.40
38131;DHT22;23947;51.894;4.622;2023-02-01T09:37:00;7.40;1.40
38131;DHT22;23947;51.894;4.622;2023-02-01T09:39:25;7.40;1.40
38131;DHT22;23947;51.894;4.622;2023-02-01T09:44:29;7.50;1.40
38131;DHT22;23947;51.894;4.622;2023-02-01T09:46:59;7.50;1.40
38131;DHT22;23947;51.894;4.622;2023-02-01T09:49:32;7.50;1.40
38131;DHT22;23947;51.894;4.622;2023-02-01T09:51:59;7.60;1.40
38131;DHT22;23947;51.894;4.622;2023-02-01T09:54:38;7.60;1.40
38131;DHT22;23947;51.894;4.622;2023-02-01T09:57:11;7.60;1.40
38131;DHT22;23947;51.894;4.622;2023-02-01T09:59:46;7.60;1.40
38131;DHT22;23947;51.894;4.622;2023-02-01T10:02:19;7.60;1.40
38131;DHT22;23947;51.894;4.622;2023-02-01T10:04:45;7.70;1.40
38131;DHT22;23947;51.894;4.622;2023-02-01T10:14:51;7.60;1.40
38131;DHT22;23947;51.894;4.622;2023-02-01T10:20:21;7.60;1.40
38131;DHT22;23947;51.894;4.622;2023-02-01T10:23:06;7.60;1.40
38131;DHT22;23947;51.894;4.622;2023-02-01T10:25:52;7.60;1.40
38131;DHT22;23947;51.894;4.622;2023-02-01T10:28:18;7.70;1.40
38131;DHT22;23947;51.894;4.622;2023-02-01T10:30:47;7.70;1.40
38131;DHT22;23947;51.894;4.622;2023-02-01T10:33:14;7.70;1.40
38131;DHT22;23947;51.894;4.622;2023-02-01T10:35:40;7.60;1.40
38131;DHT22;23947;51.894;4.622;2023-02-01T10:38:10;7.60;1.40
38131;DHT22;23947;51.894;4.622;2023-02-01T10:40:38;7.60;1.40
38131;DHT22;23947;51.894;4.622;2023-02-01T10:43:04;7.60;1.40
38131;DHT22;23947;51.894;4.622;2023-02-01T10:45:30;7.60;1.40
38131;DHT22;23947;51.894;4.622;2023-02-01T10:47:57;7.60;1.40
38131;DHT22;23947;51.894;4.622;2023-02-01T10:55:49;7.70;1.40
38131;DHT22;23947;51.894;4.622;2023-02-01T10:58:32;7.70;1.40
38131;DHT22;23947;51.894;4.622;2023-02-01T11:03:39;7.90;1.40
38131;DHT22;23947;51.894;4.622;2023-02-01T11:06:48;7.90;1.40
38131;DHT22;23947;51.894;4.622;2023-02-01T11:08:56;8.00;1.40
38131;DHT22;23947;51.894;4.622;2023-02-01T11:11:22;7.90;1.40
38131;DHT22;23947;51.894;4.622;2023-02-01T11:13:52;7.90;1.40
38131;DHT22;23947;51.894;4.622;2023-02-01T11:16:18;7.90;1.40
38131;DHT22;23947;51.894;4.622;2023-02-01T11:18:44;7.90;1.40
38131;DHT22;23947;51.894;4.622;2023-02-01T11:21:09;8.00;1.40
38131;DHT22;23947;51.894;4.622;2023-02-01T11:23:40;7.90;1.40
38131;DHT22;23947;51.894;4.622;2023-02-01T11:26:13;8.00;1.40
38131;DHT22;23947;51.894;4.622;2023-02-01T11:28:40;8.00;1.40
38131;DHT22;23947;51.894;4.622;2023-02-01T11:31:09;8.00;1.40
38131;DHT22;23947;51.894;4.622;2023-02-01T11:33:37;8.00;1.40
38131;DHT22;23947;51.894;4.622;2023-02-01T11:36:10;7.90;1.40
38131;DHT22;23947;51.894;4.622;2023-02-01T11:38:37;8.00;1.40
38131;DHT22;23947;51.894;4.622;2023-02-01T11:41:13;8.00;1.40
38131;DHT22;23947;51.894;4.622;2023-02-01T11:43:50;7.90;1.40
38131;DHT22;23947;51.894;4.622;2023-02-01T11:46:17;7.90;1.40
38131;DHT22;23947;51.894;4.622;2023-02-01T11:48:47;7.90;1.40
38131;DHT22;23947;51.894;4.622;2023-02-01T11:51:20;7.90;1.40
38131;DHT22;23947;51.894;4.622;2023-02-01T11:56:25;8.00;1.40
38131;DHT22;23947;51.894;4.622;2023-02-01T12:06:53;8.00;1.40
38131;DHT22;23947;51.894;4.622;2023-02-01T12:10:06;8.00;1.40
38131;DHT22;23947;51.894;4.622;2023-02-01T12:15:01;8.00;1.40
38131;DHT22;23947;51.894;4.622;2023-02-01T12:17:49;8.00;1.40
38131;DHT22;23947;51.894;4.622;2023-02-01T12:28:07;8.00;1.40
38131;DHT22;23947;51.894;4.622;2023-02-01T12:30:43;8.00;1.40
38131;DHT22;23947;51.894;4.622;2023-02-01T12:46:19;8.10;1.40
38131;DHT22;23947;51.894;4.622;2023-02-01T12:51:25;8.10;1.40
38131;DHT22;23947;51.894;4.622;2023-02-01T12:56:26;8.10;1.40
38131;DHT22;23947;51.894;4.622;2023-02-01T12:58:54;8.10;1.40
38131;DHT22;23947;51.894;4.622;2023-02-01T13:01:34;8.10;1.40
38131;DHT22;23947;51.894;4.622;2023-02-01T13:04:15;8.10;1.40
38131;DHT22;23947;51.894;4.622;2023-02-01T13:06:46;8.10;1.40
38131;DHT22;23947;51.894;4.622;2023-02-01T13:09:19;8.10;1.40
38131;DHT22;23947;51.894;4.622;2023-02-01T13:11:46;8.10;1.40
38131;DHT22;23947;51.894;4.622;2023-02-01T13:14:18;8.10;1.40
38131;DHT22;23947;51.894;4.622;2023-02-01T13:16:46;8.10;1.40
38131;DHT22;23947;51.894;4.622;2023-02-01T13:19:15;8.10;1.40
38131;DHT22;23947;51.894;4.622;2023-02-01T13:21:43;8.10;1.40
38131;DHT22;23947;51.894;4.622;2023-02-01T13:24:20;8.10;1.40
38131;DHT22;23947;51.894;4.622;2023-02-01T13:26:47;8.10;1.40
38131;DHT22;23947;51.894;4.622;2023-02-01T13:29:12;8.20;1.40
38131;DHT22;23947;51.894;4.622;2023-02-01T13:31:49;8.20;1.40
38131;DHT22;23947;51.894;4.622;2023-02-01T13:34:41;8.20;1.40
38131;DHT22;23947;51.894;4.622;2023-02-01T13:37:16;8.20;1.40
38131;DHT22;23947;51.894;4.622;2023-02-01T13:39:48;8.30;1.40
38131;DHT22;23947;51.894;4.622;2023-02-01T13:44:47;8.20;1.40
38131;DHT22;23947;51.894;4.622;2023-02-01T13:49:42;8.10;1.40
38131;DHT22;23947;51.894;4.622;2023-02-01T13:52:26;8.10;1.40
38131;DHT22;23947;51.894;4.622;2023-02-01T13:57:37;8.00;1.40
38131;DHT22;23947;51.894;4.622;2023-02-01T14:00:05;8.10;1.40
38131;DHT22;23947;51.894;4.622;2023-02-01T14:05:04;8.10;1.40
38131;DHT22;23947;51.894;4.622;2023-02-01T14:07:30;8.10;1.40
38131;DHT22;23947;51.894;4.622;2023-02-01T14:09:55;8.10;1.40
38131;DHT22;23947;51.894;4.622;2023-02-01T14:17:47;8.10;1.40
38131;DHT22;23947;51.894;4.622;2023-02-01T14:23:01;8.20;1.40
38131;DHT22;23947;51.894;4.622;2023-02-01T14:25:34;8.20;1.40
38131;DHT22;23947;51.894;4.622;2023-02-01T14:28:00;8.20;1.40
38131;DHT22;23947;51.894;4.622;2023-02-01T14:30:26;8.20;1.40
38131;DHT22;23947;51.894;4.622;2023-02-01T14:32:52;8.20;1.40
38131;DHT22;23947;51.894;4.622;2023-02-01T14:35:23;8.20;1.40
38131;DHT22;23947;51.894;4.622;2023-02-01T14:37:53;8.20;1.40
38131;DHT22;23947;51.894;4.622;2023-02-01T14:40:25;8.20;1.40
38131;DHT22;23947;51.894;4.622;2023-02-01T14:42:52;8.20;1.40
38131;DHT22;23947;51.894;4.622;2023-02-01T14:57:56;8.30;1.40
38131;DHT22;23947;51.894;4.622;2023-02-01T15:00:27;8.30;1.40
38131;DHT22;23947;51.894;4.622;2023-02-01T15:02:54;8.30;1.40
38131;DHT22;23947;51.894;4.622;2023-02-01T15:05:24;8.30;1.40
38131;DHT22;23947;51.894;4.622;2023-02-01T15:07:50;8.30;1.40
38131;DHT22;23947;51.894;4.622;2023-02-01T15:10:17;8.30;1.40
38131;DHT22;23947;51.894;4.622;2023-02-01T15:12:44;8.30;1.40
38131;DHT22;23947;51.894;4.622;2023-02-01T15:15:20;8.30;1.40
38131;DHT22;23947;51.894;4.622;2023-02-01T15:17:50;8.30;1.40
38131;DHT22;23947;51.894;4.622;2023-02-01T15:20:17;8.40;1.40
38131;DHT22;23947;51.894;4.622;2023-02-01T15:22:52;8.40;1.40
38131;DHT22;23947;51.894;4.622;2023-02-01T15:25:18;8.40;1.40
38131;DHT22;23947;51.894;4.622;2023-02-01T15:27:45;8.40;1.40
38131;DHT22;23947;51.894;4.622;2023-02-01T15:30:17;8.50;1.40
38131;DHT22;23947;51.894;4.622;2023-02-01T15:32:44;8.50;1.40
38131;DHT22;23947;51.894;4.622;2023-02-01T15:38:17;8.40;1.40
38131;DHT22;23947;51.894;4.622;2023-02-01T15:40:52;8.50;1.40
38131;DHT22;23947;51.894;4.622;2023-02-01T15:43:18;8.50;1.40
38131;DHT22;23947;51.894;4.622;2023-02-01T15:45:43;8.50;1.40
38131;DHT22;23947;51.894;4.622;2023-02-01T15:48:14;8.50;1.40
38131;DHT22;23947;51.894;4.622;2023-02-01T15:50:41;8.40;1.40
38131;DHT22;23947;51.894;4.622;2023-02-01T15:53:09;8.40;1.40
38131;DHT22;23947;51.894;4.622;2023-02-01T15:55:40;8.40;1.40
38131;DHT22;23947;51.894;4.622;2023-02-01T15:58:14;8.40;1.40
38131;DHT22;23947;51.894;4.622;2023-02-01T16:00:45;8.40;1.40
38131;DHT22;23947;51.894;4.622;2023-02-01T16:03:27;8.50;1.40
38131;DHT22;23947;51.894;4.622;2023-02-01T16:05:57;8.50;1.40
38131;DHT22;23947;51.894;4.622;2023-02-01T16:08:24;8.50;1.40
38131;DHT22;23947;51.894;4.622;2023-02-01T16:10:50;8.50;1.40
38131;DHT22;23947;51.894;4.622;2023-02-01T16:13:17;8.40;1.40
38131;DHT22;23947;51.894;4.622;2023-02-01T16:15:43;8.40;1.40
38131;DHT22;23947;51.894;4.622;2023-02-01T16:18:09;8.40;1.40
38131;DHT22;23947;51.894;4.622;2023-02-01T16:20:35;8.40;1.40
38131;DHT22;23947;51.894;4.622;2023-02-01T16:23:01;8.40;1.40
38131;DHT22;23947;51.894;4.622;2023-02-01T16:25:27;8.40;1.40
38131;DHT22;23947;51.894;4.622;2023-02-01T16:27:53;8.40;1.40
38131;DHT22;23947;51.894;4.622;2023-02-01T16:30:18;8.40;1.40
38131;DHT22;23947;51.894;4.622;2023-02-01T16:32:48;8.40;1.40
38131;DHT22;23947;51.894;4.622;2023-02-01T16:35:27;8.40;1.40
38131;DHT22;23947;51.894;4.622;2023-02-01T16:37:53;8.40;1.40
38131;DHT22;23947;51.894;4.622;2023-02-01T16:40:19;8.40;1.40
38131;DHT22;23947;51.894;4.622;2023-02-01T16:42:47;8.40;1.40
38131;DHT22;23947;51.894;4.622;2023-02-01T16:45:14;8.50;1.40
38131;DHT22;23947;51.894;4.622;2023-02-01T16:47:40;8.50;1.40
38131;DHT22;23947;51.894;4.622;2023-02-01T16:50:14;8.50;1.40
38131;DHT22;23947;51.894;4.622;2023-02-01T16:52:44;8.50;1.40
38131;DHT22;23947;51.894;4.622;2023-02-01T16:55:13;8.50;1.40
38131;DHT22;23947;51.894;4.622;2023-02-01T16:57:39;8.50;1.40
38131;DHT22;23947;51.894;4.622;2023-02-01T17:00:04;8.50;1.40
38131;DHT22;23947;51.894;4.622;2023-02-01T17:02:30;8.50;1.40
38131;DHT22;23947;51.894;4.622;2023-02-01T17:04:56;8.50;1.40
38131;DHT22;23947;51.894;4.622;2023-02-01T17:07:21;8.50;1.40
38131;DHT22;23947;51.894;4.622;2023-02-01T17:09:47;8.50;1.40
38131;DHT22;23947;51.894;4.622;2023-02-01T17:12:20;8.40;1.40
38131;DHT22;23947;51.894;4.622;2023-02-01T17:14:46;8.50;1.40
38131;DHT22;23947;51.894;4.622;2023-02-01T17:17:12;8.40;1.40
38131;DHT22;23947;51.894;4.622;2023-02-01T17:19:37;8.50;1.40
38131;DHT22;23947;51.894;4.622;2023-02-01T17:22:03;8.40;1.40
38131;DHT22;23947;51.894;4.622;2023-02-01T17:24:29;8.40;1.40
38131;DHT22;23947;51.894;4.622;2023-02-01T17:26:56;8.40;1.40
38131;DHT22;23947;51.894;4.622;2023-02-01T17:29:21;8.50;1.40
38131;DHT22;23947;51.894;4.622;2023-02-01T17:31:49;8.40;1.40
38131;DHT22;23947;51.894;4.622;2023-02-01T17:34:15;8.40;1.40
38131;DHT22;23947;51.894;4.622;2023-02-01T17:36:41;8.40;1.40
38131;DHT22;23947;51.894;4.622;2023-02-01T17:39:08;8.40;1.40
38131;DHT22;23947;51.894;4.622;2023-02-01T17:41:33;8.40;1.40
38131;DHT22;23947;51.894;4.622;2023-02-01T17:44:00;8.40;1.40
38131;DHT22;23947;51.894;4.622;2023-02-01T17:46:26;8.50;1.40
38131;DHT22;23947;51.894;4.622;2023-02-01T17:48:55;8.40;1.40
38131;DHT22;23947;51.894;4.622;2023-02-01T17:51:24;8.40;1.40
38131;DHT22;23947;51.894;4.622;2023-02-01T17:53:51;8.40;1.40
38131;DHT22;23947;51.894;4.622;2023-02-01T17:56:17;8.40;1.40
38131;DHT22;23947;51.894;4.622;2023-02-01T17:58:43;8.40;1.40
38131;DHT22;23947;51.894;4.622;2023-02-01T18:01:13;8.40;1.40
38131;DHT22;23947;51.894;4.622;2023-02-01T18:03:39;8.40;1.40
38131;DHT22;23947;51.894;4.622;2023-02-01T18:06:05;8.40;1.40
38131;DHT22;23947;51.894;4.622;2023-02-01T18:08:31;8.40;1.40
38131;DHT22;23947;51.894;4.622;2023-02-01T18:10:58;8.40;1.40